Time;durP1;ratioP1;P1;durP2;ratioP2;P2;SDS_P1;SDS_P2;PMS_P1;PMS_P2;Temp;Humidity;BMP_temperature;BMP_pressure;BME280_temperature;BME280_humidity;BME280_pressure;Samples;Min_cycle;Max_cycle;Signal;HPM_P1;HPM_P2
2023/02/28 00:02:13;;;;;;;0.10;0.10;;;;;;;-8.23;84.38;100226.34;5082943;28;20142;-71
2023/02/28 00:04:39;;;;;;;0.10;0.10;;;;;;;-8.23;83.72;100222.84;5062313;28;20239;-71
2023/02/28 00:07:05;;;;;;;0.10;0.10;;;;;;;-8.29;83.74;100206.53;5063654;28;20162;-71
2023/02/28 00:09:31;;;;;;;0.20;0.20;;;;;;;-8.31;83.84;100210.28;5065694;28;20131;-71
2023/02/28 00:11:57;;;;;;;0.10;0.10;;;;;;;-8.34;83.72;100208.78;5063941;28;20254;-71
2023/02/28 00:14:25;;;;;;;0.20;0.20;;;;;;;-8.35;83.90;100212.41;5064133;28;20581;-71
2023/02/28 00:16:51;;;;;;;0.20;0.20;;;;;;;-8.38;83.81;100212.66;5081876;28;20051;-71
2023/02/28 00:19:17;;;;;;;0.20;0.20;;;;;;;-8.37;84.19;100211.69;5039952;28;20135;-71
2023/02/28 00:21:43;;;;;;;0.10;0.10;;;;;;;-8.42;83.77;100209.50;5058380;28;20471;-71
2023/02/28 00:24:10;;;;;;;0.10;0.10;;;;;;;-8.49;83.96;100212.84;5066959;28;20048;-72
2023/02/28 00:26:36;;;;;;;0.10;0.10;;;;;;;-8.52;84.31;100202.53;5054733;28;20054;-71
2023/02/28 00:29:02;;;;;;;0.23;0.23;;;;;;;-8.57;84.36;100192.34;5085451;28;20055;-72
2023/02/28 00:31:29;;;;;;;0.20;0.20;;;;;;;-8.66;84.29;100182.56;5071418;28;20048;-71
2023/02/28 00:33:55;;;;;;;0.10;0.10;;;;;;;-8.69;84.44;100200.44;5068823;28;20045;-71
2023/02/28 00:36:21;;;;;;;0.10;0.10;;;;;;;-8.74;84.76;100193.88;5046210;28;20049;-71
2023/02/28 00:38:47;;;;;;;0.17;0.17;;;;;;;-8.78;84.72;100193.31;5060976;28;20045;-71
2023/02/28 00:41:14;;;;;;;0.20;0.20;;;;;;;-8.80;85.04;100192.63;5067635;28;20102;-71
2023/02/28 00:43:40;;;;;;;0.20;0.20;;;;;;;-8.85;84.69;100193.03;5032080;28;20049;-71
2023/02/28 00:46:07;;;;;;;0.10;0.10;;;;;;;-8.83;84.82;100175.16;5064737;28;20048;-71
2023/02/28 00:48:35;;;;;;;0.20;0.20;;;;;;;-8.78;84.77;100181.88;5061825;28;20530;-71
2023/02/28 00:51:01;;;;;;;0.10;0.10;;;;;;;-8.83;84.76;100175.16;5061203;28;20462;-71
2023/02/28 00:53:28;;;;;;;0.20;0.20;;;;;;;-8.84;84.76;100183.28;5053153;28;20064;-71
2023/02/28 00:55:57;;;;;;;0.10;0.10;;;;;;;-8.84;85.17;100173.50;5054840;28;20053;-71
2023/02/28 00:58:23;;;;;;;0.20;0.20;;;;;;;-8.86;85.14;100167.50;5081062;28;20052;-71
2023/02/28 01:00:51;;;;;;;0.20;0.20;;;;;;;-8.87;85.08;100167.66;5085211;28;20047;-71
2023/02/28 01:03:18;;;;;;;0.20;0.20;;;;;;;-8.93;85.08;100155.78;5052554;28;20143;-71
2023/02/28 01:05:46;;;;;;;0.20;0.20;;;;;;;-8.99;85.07;100164.28;5048594;28;20051;-72
2023/02/28 01:08:13;;;;;;;0.20;0.20;;;;;;;-9.04;85.30;100143.53;5079678;28;20474;-71
2023/02/28 01:10:40;;;;;;;0.10;0.10;;;;;;;-9.07;85.38;100135.00;5081928;28;20040;-71
2023/02/28 01:13:07;;;;;;;0.10;0.10;;;;;;;-9.03;84.80;100141.69;5080315;28;20044;-71
2023/02/28 01:15:37;;;;;;;0.10;0.10;;;;;;;-9.05;85.07;100144.50;5065161;28;20044;-71
2023/02/28 01:18:04;;;;;;;0.20;0.20;;;;;;;-9.06;84.59;100144.63;5083515;28;20104;-71
2023/02/28 01:20:31;;;;;;;0.20;0.20;;;;;;;-9.14;84.80;100127.59;5085033;28;20047;-71
2023/02/28 01:22:58;;;;;;;0.20;0.20;;;;;;;-9.10;84.67;100124.69;5082878;28;20052;-71
2023/02/28 01:25:24;;;;;;;0.20;0.20;;;;;;;-9.10;84.77;100124.69;5051340;28;20071;-71
2023/02/28 01:27:50;;;;;;;0.10;0.10;;;;;;;-9.13;84.32;100115.19;5061498;28;20033;-71
2023/02/28 01:30:17;;;;;;;0.10;0.10;;;;;;;-9.20;84.41;100109.59;5048277;28;20052;-71
2023/02/28 01:32:42;;;;;;;0.10;0.10;;;;;;;-9.23;84.87;100112.53;5047672;28;20614;-71
2023/02/28 01:35:09;;;;;;;0.20;0.20;;;;;;;-9.26;84.85;100100.41;5067094;28;20048;-71
2023/02/28 01:37:35;;;;;;;0.20;0.20;;;;;;;-9.20;84.87;100103.47;5084127;28;20043;-71
2023/02/28 01:40:03;;;;;;;0.20;0.20;;;;;;;-9.19;84.18;100105.97;5069163;28;20577;-71
2023/02/28 01:42:29;;;;;;;0.20;0.20;;;;;;;-9.19;84.83;100097.22;5070918;28;20059;-72
2023/02/28 01:45:03;;;;;;;0.10;0.10;;;;;;;-9.19;84.29;100083.97;5050059;28;20044;-71
2023/02/28 01:47:35;;;;;;;0.20;0.20;;;;;;;-9.19;84.09;100084.78;5081617;28;20058;-71
2023/02/28 01:50:07;;;;;;;0.30;0.30;;;;;;;-9.20;84.12;100072.50;5053489;28;20052;-71
2023/02/28 01:52:34;;;;;;;0.13;0.13;;;;;;;-9.21;84.25;100083.22;5060680;28;20107;-71
2023/02/28 01:55:05;;;;;;;0.20;0.20;;;;;;;-9.24;83.88;100068.47;5070110;28;20446;-71
2023/02/28 01:57:38;;;;;;;0.20;0.20;;;;;;;-9.28;84.31;100052.00;5068246;28;20582;-71
2023/02/28 02:00:08;;;;;;;0.20;0.20;;;;;;;-9.21;83.88;100059.38;5082654;28;20121;-71
2023/02/28 02:02:48;;;;;;;0.23;0.23;;;;;;;-9.22;84.03;100055.06;5071308;28;20049;-71
2023/02/28 02:05:16;;;;;;;0.20;0.20;;;;;;;-9.26;84.30;100065.94;5067327;28;20102;-71
2023/02/28 02:07:45;;;;;;;0.20;0.20;;;;;;;-9.15;84.44;100051.72;5069198;28;20324;-71
2023/02/28 02:10:16;;;;;;;0.20;0.20;;;;;;;-9.10;83.62;100061.91;5082767;28;20048;-71
2023/02/28 02:13:00;;;;;;;0.10;0.10;;;;;;;-9.13;83.65;100055.09;5082369;28;20064;-71
2023/02/28 02:15:54;;;;;;;0.17;0.17;;;;;;;-9.10;83.92;100050.50;5035521;28;20063;-71
2023/02/28 02:18:29;;;;;;;0.20;0.20;;;;;;;-9.06;83.28;100038.63;5068588;28;20422;-71
2023/02/28 02:21:32;;;;;;;0.10;0.10;;;;;;;-9.09;83.24;100038.91;5062074;28;20048;-71
2023/02/28 02:24:20;;;;;;;0.20;0.20;;;;;;;-9.17;82.99;100029.00;5042287;28;20470;-72
2023/02/28 02:27:04;;;;;;;0.10;0.10;;;;;;;-9.20;83.10;100027.47;5065222;28;20099;-71
2023/02/28 02:30:04;;;;;;;0.10;0.10;;;;;;;-9.21;83.16;100032.91;5059115;28;20059;-72
2023/02/28 02:33:06;;;;;;;0.10;0.10;;;;;;;-9.19;83.42;100029.13;5045160;28;20055;-71
2023/02/28 02:35:40;;;;;;;0.10;0.10;;;;;;;-9.15;83.30;100019.94;5033121;28;20511;-71
2023/02/28 02:38:13;;;;;;;0.20;0.20;;;;;;;-9.16;83.03;100020.91;5062597;28;20055;-71
2023/02/28 02:40:45;;;;;;;0.20;0.20;;;;;;;-9.18;83.00;100014.09;5060708;28;20135;-71
2023/02/28 02:43:17;;;;;;;0.17;0.17;;;;;;;-9.16;83.00;100031.50;5080108;28;20109;-71
2023/02/28 02:45:49;;;;;;;0.30;0.20;;;;;;;-9.19;83.03;100029.13;5072175;28;20040;-71
2023/02/28 02:48:19;;;;;;;0.10;0.10;;;;;;;-9.17;82.95;100016.59;5072117;28;20067;-71
2023/02/28 02:50:52;;;;;;;0.10;0.10;;;;;;;-9.16;82.77;100002.34;5072126;28;20044;-71
2023/02/28 02:53:25;;;;;;;0.10;0.10;;;;;;;-9.19;82.72;100001.81;5060736;28;20044;-72
2023/02/28 02:55:54;;;;;;;0.20;0.20;;;;;;;-9.13;83.07;100006.56;5048415;28;20097;-71
2023/02/28 02:58:26;;;;;;;0.20;0.20;;;;;;;-9.17;82.99;100006.00;5081366;28;20427;-72
2023/02/28 03:00:55;;;;;;;0.17;0.17;;;;;;;-9.19;83.23;100000.00;5031977;28;20053;-72
2023/02/28 03:03:28;;;;;;;0.10;0.10;;;;;;;-9.13;82.96;99988.84;5065158;28;20056;-72
2023/02/28 03:05:57;;;;;;;0.20;0.20;;;;;;;-9.09;82.88;99985.91;5067337;28;20102;-71
2023/02/28 03:08:24;;;;;;;0.10;0.10;;;;;;;-9.18;82.71;99982.31;5037496;28;20053;-71
2023/02/28 03:10:51;;;;;;;0.20;0.20;;;;;;;-9.15;82.85;99969.59;5060508;28;20048;-71
2023/02/28 03:14:10;;;;;;;0.15;0.15;;;;;;;-9.11;82.48;99964.84;5068111;28;20055;-69
2023/02/28 03:16:56;;;;;;;0.10;0.10;;;;;;;-9.09;82.59;99964.72;4985771;28;20050;-69
2023/02/28 03:19:37;;;;;;;0.20;0.20;;;;;;;-9.13;82.25;99951.75;5049655;28;20741;-69
2023/02/28 03:22:32;;;;;;;0.20;0.20;;;;;;;-9.17;82.20;99957.47;5062163;28;20052;-69
2023/02/28 03:25:06;;;;;;;0.20;0.20;;;;;;;-9.11;82.42;99962.19;5067632;28;20060;-69
2023/02/28 03:27:39;;;;;;;0.10;0.10;;;;;;;-9.12;82.11;99944.63;5087439;28;20044;-69
2023/02/28 03:30:14;;;;;;;0.20;0.20;;;;;;;-9.17;82.34;99945.06;5059583;28;20056;-69
2023/02/28 03:32:51;;;;;;;0.13;0.13;;;;;;;-9.13;82.16;99940.31;5058390;28;20501;-69
2023/02/28 03:35:21;;;;;;;0.10;0.10;;;;;;;-9.16;82.62;99932.66;5073413;28;20049;-69
2023/02/28 03:37:53;;;;;;;0.20;0.20;;;;;;;-9.14;82.46;99925.38;5061824;28;20137;-70
2023/02/28 03:40:23;;;;;;;0.20;0.20;;;;;;;-9.00;81.99;99919.63;5044896;28;20048;-71
2023/02/28 03:42:53;;;;;;;0.20;0.20;;;;;;;-8.99;81.17;99913.34;5067601;28;20059;-71
2023/02/28 03:45:23;;;;;;;0.50;0.20;;;;;;;-8.97;81.13;99913.22;5029502;28;20088;-70
2023/02/28 03:47:52;;;;;;;0.20;0.20;;;;;;;-8.92;80.85;99918.06;5085631;28;20073;-71
2023/02/28 03:50:22;;;;;;;0.20;0.20;;;;;;;-8.99;80.38;99923.94;5084539;28;20052;-71
2023/02/28 03:53:00;;;;;;;0.10;0.10;;;;;;;-8.98;80.73;99908.88;5078532;28;20056;-71
2023/02/28 03:55:30;;;;;;;0.20;0.20;;;;;;;-9.00;80.81;99900.22;5066349;28;20052;-69
2023/02/28 03:58:03;;;;;;;0.10;0.10;;;;;;;-8.93;80.35;99882.78;5059120;28;20083;-69
2023/02/28 04:00:34;;;;;;;0.30;0.30;;;;;;;-8.96;80.24;99885.72;5031956;28;20056;-69
2023/02/28 04:03:01;;;;;;;0.20;0.20;;;;;;;-8.97;79.82;99879.59;5047381;28;20055;-69
2023/02/28 04:05:27;;;;;;;0.20;0.20;;;;;;;-9.03;80.23;99880.19;5060225;28;20051;-69
2023/02/28 04:08:03;;;;;;;0.20;0.20;;;;;;;-9.00;80.08;99879.03;5068817;28;20075;-69
2023/02/28 04:10:32;;;;;;;0.20;0.20;;;;;;;-8.95;79.63;99866.19;5082109;28;20040;-71
2023/02/28 04:12:58;;;;;;;0.17;0.17;;;;;;;-8.97;79.67;99844.31;5046132;28;20060;-71
2023/02/28 04:15:24;;;;;;;0.20;0.20;;;;;;;-8.89;79.27;99839.09;5066341;28;20071;-71
2023/02/28 04:17:50;;;;;;;0.20;0.20;;;;;;;-8.84;78.87;99841.31;5064426;28;20189;-71
2023/02/28 04:20:17;;;;;;;0.20;0.20;;;;;;;-8.84;78.16;99841.31;5071066;28;20044;-72
2023/02/28 04:22:43;;;;;;;0.20;0.20;;;;;;;-8.78;78.41;99847.84;5085392;28;20055;-71
2023/02/28 04:25:10;;;;;;;0.13;0.13;;;;;;;-8.72;77.21;99844.59;5076443;28;20143;-71
2023/02/28 04:27:36;;;;;;;0.17;0.17;;;;;;;-8.68;77.16;99845.94;5063870;28;20048;-71
2023/02/28 04:30:03;;;;;;;0.10;0.10;;;;;;;-8.69;76.63;99842.47;5064214;28;20441;-70
2023/02/28 04:32:30;;;;;;;0.22;0.22;;;;;;;-8.67;76.74;99849.44;5065465;28;20049;-70
2023/02/28 04:34:56;;;;;;;0.10;0.10;;;;;;;-8.71;76.87;99836.50;5064567;28;20052;-71
2023/02/28 04:37:27;;;;;;;0.20;0.20;;;;;;;-8.67;76.83;99842.31;4713591;28;10000088;-71
2023/02/28 04:39:53;;;;;;;0.20;0.20;;;;;;;-8.65;76.58;99826.28;5055234;28;20562;-72
2023/02/28 04:42:21;;;;;;;0.10;0.10;;;;;;;-8.63;76.52;99833.09;5046157;28;20079;-71
2023/02/28 04:44:47;;;;;;;0.22;0.20;;;;;;;-8.59;76.21;99828.31;5079227;28;20040;-71
2023/02/28 04:47:13;;;;;;;0.10;0.10;;;;;;;-8.50;75.69;99821.31;5081040;28;20054;-72
2023/02/28 04:49:41;;;;;;;0.20;0.20;;;;;;;-8.50;75.02;99806.22;5079784;28;20093;-71
2023/02/28 04:52:07;;;;;;;0.20;0.20;;;;;;;-8.46;74.32;99798.75;5055825;28;20621;-71
2023/02/28 04:54:33;;;;;;;0.20;0.20;;;;;;;-8.41;74.35;99805.28;5081602;28;20117;-71
2023/02/28 04:57:01;;;;;;;0.20;0.20;;;;;;;-8.33;73.09;99793.91;5061918;28;20087;-71
2023/02/28 04:59:28;;;;;;;0.20;0.20;;;;;;;-8.34;73.18;99786.09;5083521;28;20052;-71
2023/02/28 05:01:54;;;;;;;0.22;0.22;;;;;;;-8.31;72.92;99783.13;5076347;28;20514;-71
2023/02/28 05:04:20;;;;;;;0.20;0.20;;;;;;;-8.30;72.86;99783.00;5061885;28;20052;-71
2023/02/28 05:06:46;;;;;;;0.20;0.20;;;;;;;-8.27;73.14;99784.50;5047855;28;20110;-71
2023/02/28 05:09:13;;;;;;;0.20;0.20;;;;;;;-8.21;72.02;99767.97;5065785;28;20076;-71
2023/02/28 05:11:39;;;;;;;0.20;0.20;;;;;;;-8.21;72.05;99775.94;5055075;28;20099;-71
2023/02/28 05:14:09;;;;;;;0.23;0.23;;;;;;;-8.18;71.60;99756.22;5090520;28;20043;-71
2023/02/28 05:16:36;;;;;;;0.20;0.20;;;;;;;-8.15;71.60;99750.59;5063126;28;20717;-70
2023/02/28 05:19:03;;;;;;;0.20;0.20;;;;;;;-8.13;71.34;99748.63;5063073;28;20048;-70
2023/02/28 05:21:30;;;;;;;0.27;0.27;;;;;;;-8.00;70.63;99767.66;5069075;28;20388;-72
2023/02/28 05:23:58;;;;;;;0.20;0.20;;;;;;;-7.95;70.67;99747.75;5073333;28;20047;-71
2023/02/28 05:26:25;;;;;;;0.20;0.20;;;;;;;-7.94;70.29;99733.50;5053344;28;20545;-70
2023/02/28 05:28:51;;;;;;;0.20;0.20;;;;;;;-7.91;70.06;99722.56;5036757;28;20111;-71
2023/02/28 05:31:17;;;;;;;0.20;0.20;;;;;;;-7.89;69.52;99716.13;5059624;28;20048;-71
2023/02/28 05:33:45;;;;;;;0.20;0.20;;;;;;;-7.79;69.22;99718.66;5061768;28;20105;-72
2023/02/28 05:36:11;;;;;;;0.20;0.20;;;;;;;-7.71;68.63;99715.22;5066989;28;20176;-72
2023/02/28 05:38:37;;;;;;;0.10;0.10;;;;;;;-7.63;67.61;99709.97;5077294;28;20486;-71
2023/02/28 05:41:06;;;;;;;0.20;0.20;;;;;;;-7.65;67.74;99689.84;5063108;28;20044;-72
2023/02/28 05:43:33;;;;;;;0.30;0.30;;;;;;;-7.50;67.38;99698.88;5067632;28;20047;-71
2023/02/28 05:45:59;;;;;;;0.10;0.10;;;;;;;-7.43;66.49;99683.13;5045159;28;20052;-71
2023/02/28 05:48:25;;;;;;;0.20;0.20;;;;;;;-7.46;66.57;99694.91;5029092;28;20111;-70
2023/02/28 05:50:53;;;;;;;0.20;0.20;;;;;;;-7.43;65.90;99680.47;5040168;28;20040;-72
2023/02/28 05:53:19;;;;;;;0.20;0.20;;;;;;;-7.43;66.44;99672.50;5049207;28;20836;-72
2023/02/28 05:55:45;;;;;;;0.20;0.20;;;;;;;-7.35;65.78;99663.72;5059646;28;20125;-72
2023/02/28 05:58:11;;;;;;;0.20;0.20;;;;;;;-7.36;65.89;99676.19;5061445;28;20143;-72
2023/02/28 06:00:37;;;;;;;0.20;0.20;;;;;;;-7.28;65.75;99681.53;5033312;28;20036;-72
2023/02/28 06:03:03;;;;;;;0.20;0.20;;;;;;;-7.18;65.62;99676.06;5053140;28;20055;-72
2023/02/28 06:05:29;;;;;;;0.20;0.20;;;;;;;-7.09;65.02;99662.81;5036301;28;20061;-72
2023/02/28 06:07:57;;;;;;;0.30;0.30;;;;;;;-7.04;64.90;99657.84;5072548;28;20075;-72
2023/02/28 06:10:23;;;;;;;0.20;0.20;;;;;;;-6.87;64.75;99648.03;5077399;28;20127;-73
2023/02/28 06:12:49;;;;;;;0.10;0.10;;;;;;;-6.99;64.23;99656.34;5063562;28;20048;-73
2023/02/28 06:15:16;;;;;;;0.20;0.20;;;;;;;-7.09;64.43;99630.91;5067458;28;20055;-73
2023/02/28 06:17:43;;;;;;;0.20;0.20;;;;;;;-7.11;64.08;99639.03;5074278;28;20075;-70
2023/02/28 06:20:12;;;;;;;0.10;0.10;;;;;;;-7.18;64.57;99620.25;5060862;28;20044;-70
2023/02/28 06:22:39;;;;;;;0.20;0.20;;;;;;;-7.06;64.65;99617.28;5060724;28;20113;-70
2023/02/28 06:25:07;;;;;;;0.23;0.23;;;;;;;-6.96;64.19;99617.94;5059820;28;20516;-70
2023/02/28 06:27:34;;;;;;;0.10;0.10;;;;;;;-6.80;63.63;99605.66;5061766;28;20048;-73
2023/02/28 06:30:00;;;;;;;0.10;0.10;;;;;;;-6.66;63.40;99607.66;5064590;28;20504;-72
2023/02/28 06:32:26;;;;;;;0.20;0.20;;;;;;;-6.66;63.24;99620.94;5074737;28;20167;-72
2023/02/28 06:34:52;;;;;;;0.20;0.20;;;;;;;-6.70;62.86;99590.38;5071470;28;20052;-72
2023/02/28 06:37:19;;;;;;;0.20;0.20;;;;;;;-6.63;62.85;99599.34;5058964;28;20048;-72
2023/02/28 06:39:45;;;;;;;0.10;0.10;;;;;;;-6.43;63.18;99585.69;5063438;28;20329;-72
2023/02/28 06:42:12;;;;;;;0.10;0.10;;;;;;;-6.25;62.46;99584.66;5089459;28;20058;-71
2023/02/28 06:44:39;;;;;;;0.20;0.20;;;;;;;-6.12;62.40;99604.41;5082686;28;20052;-72
2023/02/28 06:47:06;;;;;;;0.10;0.10;;;;;;;-6.01;62.10;99589.88;5068426;28;20051;-72
2023/02/28 06:49:34;;;;;;;0.10;0.10;;;;;;;-5.97;62.38;99585.03;5065373;28;20109;-72
2023/02/28 06:52:00;;;;;;;0.73;0.20;;;;;;;-5.93;62.07;99565.06;5067322;28;20048;-72
2023/02/28 06:54:27;;;;;;;0.20;0.20;;;;;;;-5.82;62.27;99581.63;5070839;28;20044;-72
2023/02/28 06:56:54;;;;;;;0.10;0.10;;;;;;;-5.74;61.51;99553.13;5066286;28;20046;-72
2023/02/28 06:59:21;;;;;;;0.13;0.13;;;;;;;-5.76;61.96;99533.84;5066391;28;20060;-72
2023/02/28 07:01:47;;;;;;;0.20;0.20;;;;;;;-5.72;62.16;99531.66;5067670;28;20048;-72
2023/02/28 07:04:13;;;;;;;0.10;0.10;;;;;;;-5.67;62.02;99512.50;5059499;28;20259;-72
2023/02/28 07:06:39;;;;;;;0.10;0.10;;;;;;;-5.55;62.31;99511.91;5059879;28;20528;-72
2023/02/28 07:09:06;;;;;;;0.20;0.20;;;;;;;-5.43;62.17;99490.19;5057533;28;20043;-72
2023/02/28 07:11:32;;;;;;;0.10;0.10;;;;;;;-5.40;62.30;99495.16;5058595;28;20048;-71
2023/02/28 07:13:58;;;;;;;0.10;0.10;;;;;;;-5.38;62.50;99505.63;5051583;28;20150;-72
2023/02/28 07:16:25;;;;;;;0.13;0.13;;;;;;;-5.30;62.81;99495.75;5044478;28;20531;-72
2023/02/28 07:18:52;;;;;;;;;;;;;;;-5.23;62.95;99487.03;5065389;28;20416;-72
2023/02/28 07:21:18;;;;;;;0.20;0.20;;;;;;;-5.23;62.75;99468.34;5056850;28;19924;-70
2023/02/28 07:23:44;;;;;;;0.10;0.10;;;;;;;-5.12;63.48;99476.75;5039878;28;20604;-70
2023/02/28 07:26:14;;;;;;;0.10;0.10;;;;;;;-5.01;63.25;99472.81;5059776;28;20049;-70
2023/02/28 07:28:40;;;;;;;0.10;0.10;;;;;;;-4.97;63.07;99459.94;5059122;28;20044;-70
2023/02/28 07:31:07;;;;;;;0.10;0.10;;;;;;;-4.89;63.57;99449.22;5059261;28;20054;-70
2023/02/28 07:33:35;;;;;;;0.10;0.10;;;;;;;-4.81;64.10;99444.78;5059690;28;20210;-70
2023/02/28 07:36:01;;;;;;;0.10;0.10;;;;;;;-4.69;63.78;99456.69;5040308;28;20045;-70
2023/02/28 07:38:27;;;;;;;0.10;0.10;;;;;;;-4.54;63.60;99448.66;5053676;28;20750;-70
2023/02/28 07:40:53;;;;;;;0.20;0.20;;;;;;;-4.55;64.01;99441.66;5037423;28;20139;-70
2023/02/28 07:43:19;;;;;;;0.13;0.13;;;;;;;-4.53;64.53;99428.97;5032341;28;20053;-70
2023/02/28 07:45:45;;;;;;;0.10;0.10;;;;;;;-4.46;64.56;99424.56;5060421;28;20041;-70
2023/02/28 07:48:12;;;;;;;0.10;0.10;;;;;;;-4.25;64.62;99420.28;5061472;28;20068;-70
2023/02/28 07:50:39;;;;;;;0.10;0.10;;;;;;;-4.05;64.54;99423.19;5057494;28;20041;-70
2023/02/28 07:53:05;;;;;;;0.10;0.10;;;;;;;-3.99;64.58;99432.28;5055861;28;20546;-70
2023/02/28 07:55:31;;;;;;;0.17;0.17;;;;;;;-3.97;64.50;99434.78;5054029;28;20091;-70
2023/02/28 07:57:58;;;;;;;0.10;0.10;;;;;;;-4.02;64.96;99428.13;5063082;28;20055;-70
2023/02/28 08:00:24;;;;;;;0.20;0.20;;;;;;;-3.82;64.99;99411.53;5042191;28;20051;-70
2023/02/28 08:02:50;;;;;;;0.20;0.20;;;;;;;-3.35;64.09;99417.28;5056663;28;20516;-70
2023/02/28 08:05:17;;;;;;;0.20;0.20;;;;;;;-3.11;62.52;99422.41;5053744;28;20077;-70
2023/02/28 08:07:44;;;;;;;0.27;0.10;;;;;;;-3.33;62.88;99401.06;5060543;28;20056;-70
2023/02/28 08:10:11;;;;;;;0.10;0.10;;;;;;;-3.56;63.72;99410.09;5057826;28;20044;-70
2023/02/28 08:12:37;;;;;;;0.10;0.10;;;;;;;-3.67;64.25;99395.41;5052736;28;20037;-70
2023/02/28 08:15:03;;;;;;;0.10;0.10;;;;;;;-3.76;64.32;99392.03;5056987;28;20048;-70
2023/02/28 08:17:29;;;;;;;0.20;0.20;;;;;;;-3.75;64.76;99385.69;5057688;28;20048;-70
2023/02/28 08:19:55;;;;;;;0.10;0.10;;;;;;;-3.66;64.57;99386.38;5053363;28;20095;-70
2023/02/28 08:22:22;;;;;;;0.10;0.10;;;;;;;-3.46;64.20;99373.19;5038109;28;20071;-70
2023/02/28 08:24:49;;;;;;;0.10;0.10;;;;;;;-3.38;64.12;99372.22;5053155;28;20076;-70
2023/02/28 08:27:16;;;;;;;0.20;0.20;;;;;;;-3.40;63.96;99365.41;5050787;28;20310;-71
2023/02/28 08:29:42;;;;;;;0.17;0.17;;;;;;;-3.52;64.42;99327.69;5060717;28;20049;-70
2023/02/28 08:32:08;;;;;;;0.13;0.13;;;;;;;-3.52;64.28;99349.88;5060036;28;20051;-70
2023/02/28 08:34:34;;;;;;;0.20;0.20;;;;;;;-3.48;64.02;99343.16;5052167;28;20049;-70
2023/02/28 08:37:00;;;;;;;0.20;0.20;;;;;;;-3.51;64.31;99340.88;5057981;28;20052;-70
2023/02/28 08:39:26;;;;;;;0.20;0.20;;;;;;;-3.15;63.64;99339.03;5059219;28;20065;-70
2023/02/28 08:41:54;;;;;;;0.10;0.10;;;;;;;-2.87;62.35;99338.16;5054656;28;20071;-70
2023/02/28 08:44:20;;;;;;;0.10;0.10;;;;;;;-3.01;63.05;99342.63;5013807;28;20140;-70
2023/02/28 08:46:46;;;;;;;0.20;0.20;;;;;;;-2.96;63.37;99369.63;5055380;28;20140;-70
2023/02/28 08:49:12;;;;;;;0.10;0.10;;;;;;;-3.13;63.54;99388.66;5055433;28;20045;-72
2023/02/28 08:51:39;;;;;;;0.53;0.20;;;;;;;-3.22;64.42;99384.44;5059820;28;20033;-72
2023/02/28 08:54:05;;;;;;;0.10;0.10;;;;;;;-3.24;64.95;99358.94;5057398;28;20139;-72
2023/02/28 08:56:31;;;;;;;0.10;0.10;;;;;;;-3.25;65.22;99374.16;5058943;28;20202;-73
2023/02/28 08:58:58;;;;;;;0.37;0.20;;;;;;;-3.44;66.20;99392.53;5057000;28;20135;-72
2023/02/28 09:01:29;;;;;;;0.10;0.10;;;;;;;-3.52;66.93;99375.78;5036188;28;20123;-72
2023/02/28 09:03:56;;;;;;;0.10;0.10;;;;;;;-3.59;67.01;99392.63;5026433;28;20420;-73
2023/02/28 09:06:24;;;;;;;0.10;0.10;;;;;;;-3.63;67.41;99358.44;5055235;28;20106;-72
2023/02/28 09:08:51;;;;;;;0.10;0.10;;;;;;;-3.70;67.73;99361.88;5058986;28;20060;-72
2023/02/28 09:11:18;;;;;;;0.10;0.10;;;;;;;-3.65;67.74;99363.16;5054662;28;20049;-72
2023/02/28 09:13:45;;;;;;;0.10;0.10;;;;;;;-3.66;67.76;99348.16;5061235;28;20040;-70
2023/02/28 09:16:15;;;;;;;0.10;0.10;;;;;;;-3.71;67.66;99322.81;5052878;28;20049;-70
2023/02/28 09:18:43;;;;;;;0.20;0.20;;;;;;;-3.68;67.76;99345.66;5037300;28;20532;-70
2023/02/28 09:21:13;;;;;;;0.10;0.10;;;;;;;-3.71;67.91;99300.63;5064092;28;20048;-70
2023/02/28 09:23:39;;;;;;;0.10;0.10;;;;;;;-3.65;68.15;99304.34;5060338;28;20097;-70
2023/02/28 09:26:06;;;;;;;0.10;0.10;;;;;;;-3.50;68.04;99299.75;5056280;28;20118;-69
2023/02/28 09:28:32;;;;;;;0.10;0.10;;;;;;;-3.40;67.77;99303.91;5058852;28;20059;-70
2023/02/28 09:30:58;;;;;;;0.20;0.20;;;;;;;-3.31;67.30;99314.25;5047488;28;20045;-70
2023/02/28 09:33:26;;;;;;;0.10;0.10;;;;;;;-3.32;67.65;99296.56;5058322;28;20079;-70
2023/02/28 09:35:58;;;;;;;0.10;0.10;;;;;;;-3.34;67.74;99290.56;5058888;28;20083;-69
2023/02/28 09:38:25;;;;;;;0.10;0.10;;;;;;;-3.30;67.75;99307.88;5060599;28;20556;-70
2023/02/28 09:40:53;;;;;;;0.10;0.10;;;;;;;-3.36;67.91;99300.66;5058525;28;20044;-69
2023/02/28 09:43:23;;;;;;;0.17;0.17;;;;;;;-3.35;68.11;99314.84;5054767;28;20048;-70
2023/02/28 09:45:58;;;;;;;0.10;0.10;;;;;;;-3.35;68.67;99304.16;5021027;28;20262;-70
2023/02/28 09:48:31;;;;;;;0.10;0.10;;;;;;;-3.33;68.70;99300.25;5058852;28;20044;-70
2023/02/28 09:51:02;;;;;;;0.10;0.10;;;;;;;-3.29;68.72;99314.88;5058984;28;20451;-70
2023/02/28 09:53:34;;;;;;;0.13;0.13;;;;;;;-3.27;68.83;99287.94;5059728;28;20521;-70
2023/02/28 09:56:06;;;;;;;0.10;0.10;;;;;;;-3.14;69.00;99287.19;5058139;28;20044;-70
2023/02/28 09:58:41;;;;;;;0.10;0.10;;;;;;;-3.15;68.31;99291.72;5064081;28;20048;-70
2023/02/28 10:01:18;;;;;;;0.10;0.10;;;;;;;-3.16;68.36;99283.88;5062694;28;20527;-70
2023/02/28 10:03:54;;;;;;;0.10;0.10;;;;;;;-3.21;68.56;99265.75;5056786;28;20932;-69
2023/02/28 10:06:22;;;;;;;0.10;0.10;;;;;;;-3.23;68.78;99273.16;5048539;28;20334;-70
2023/02/28 10:08:57;;;;;;;0.10;0.10;;;;;;;-3.28;68.99;99267.56;5037750;28;20072;-70
2023/02/28 10:11:25;;;;;;;0.10;0.10;;;;;;;-3.21;69.31;99267.63;5054006;28;20424;-70
2023/02/28 10:14:01;;;;;;;0.20;0.20;;;;;;;-3.19;68.91;99261.06;5057083;28;20518;-70
2023/02/28 10:16:33;;;;;;;0.10;0.10;;;;;;;-3.25;68.83;99245.78;5035450;28;20041;-70
2023/02/28 10:19:05;;;;;;;0.10;0.10;;;;;;;-3.26;69.07;99254.81;5035024;28;20055;-70
2023/02/28 10:21:36;;;;;;;0.10;0.10;;;;;;;-3.25;69.24;99239.63;5058585;28;20106;-70
2023/02/28 10:24:10;;;;;;;0.10;0.10;;;;;;;-3.19;69.01;99230.78;5060738;28;20528;-70
2023/02/28 10:26:37;;;;;;;0.10;0.10;;;;;;;-3.20;69.48;99229.16;5055967;28;20049;-70
2023/02/28 10:29:03;;;;;;;0.07;0.07;;;;;;;-3.23;69.59;99230.34;5049411;28;20068;-69
2023/02/28 10:31:29;;;;;;;0.20;0.20;;;;;;;-3.18;69.70;99232.44;5056418;28;20056;-70
2023/02/28 10:33:55;;;;;;;0.10;0.10;;;;;;;-3.12;69.72;99231.66;5055349;28;20112;-70
2023/02/28 10:36:23;;;;;;;0.10;0.10;;;;;;;-3.07;69.28;99215.84;5055105;28;20258;-70
2023/02/28 10:38:50;;;;;;;0.10;0.10;;;;;;;-3.10;69.41;99221.59;5057182;28;20052;-70
2023/02/28 10:41:28;;;;;;;0.10;0.10;;;;;;;-3.18;69.60;99224.41;5055126;28;20059;-69
2023/02/28 10:44:13;;;;;;;0.10;0.10;;;;;;;-3.20;70.28;99223.78;5042760;28;20057;-69
2023/02/28 10:46:40;;;;;;;1.10;0.27;;;;;;;-3.20;70.38;99216.63;5055145;28;20599;-70
2023/02/28 10:49:14;;;;;;;0.10;0.10;;;;;;;-3.26;71.00;99198.66;5053292;28;20507;-70
2023/02/28 10:51:41;;;;;;;0.10;0.10;;;;;;;-3.32;71.10;99212.84;5055968;28;20109;-70
2023/02/28 10:54:16;;;;;;;0.10;0.10;;;;;;;-3.29;71.33;99201.75;5057510;28;20420;-70
2023/02/28 10:56:42;;;;;;;0.10;0.10;;;;;;;-3.26;70.90;99221.94;5057201;28;20456;-70
2023/02/28 10:59:27;;;;;;;0.10;0.10;;;;;;;-3.26;71.05;99219.25;5060740;28;20056;-70
2023/02/28 11:01:53;;;;;;;0.10;0.10;;;;;;;-3.22;71.13;99207.94;5061415;28;20040;-70
2023/02/28 11:04:35;;;;;;;0.10;0.10;;;;;;;-3.28;71.41;99184.69;5056156;28;20049;-69
2023/02/28 11:07:05;;;;;;;0.17;0.17;;;;;;;-3.33;72.07;99209.34;5053033;28;20477;-70
2023/02/28 11:09:34;;;;;;;0.10;0.10;;;;;;;-3.34;72.48;99193.50;5056368;28;20102;-69
2023/02/28 11:12:02;;;;;;;0.10;0.10;;;;;;;-3.29;72.35;99178.50;5057104;28;20071;-69
2023/02/28 11:14:30;;;;;;;0.10;0.10;;;;;;;-3.23;72.46;99206.28;5052758;28;20603;-70
2023/02/28 11:17:00;;;;;;;0.10;0.10;;;;;;;-3.23;72.39;99184.91;5053600;28;20052;-69
2023/02/28 11:19:36;;;;;;;0.10;0.10;;;;;;;-3.32;72.52;99168.19;5032086;28;20068;-70
2023/02/28 11:22:05;;;;;;;0.10;0.10;;;;;;;-3.37;72.92;99177.84;5029912;28;20056;-70
2023/02/28 11:24:35;;;;;;;0.10;0.10;;;;;;;-3.35;73.40;99168.59;5056714;28;20064;-69
2023/02/28 11:27:02;;;;;;;0.10;0.10;;;;;;;-3.32;73.10;99160.19;5061917;28;20045;-69
2023/02/28 11:29:29;;;;;;;0.17;0.10;;;;;;;-3.34;73.06;99175.59;5061541;28;20917;-70
2023/02/28 11:32:13;;;;;;;0.08;0.08;;;;;;;-3.47;73.95;99178.22;5054010;28;20409;-73
2023/02/28 11:34:41;;;;;;;0.10;0.10;;;;;;;-3.48;74.43;99158.69;5060015;28;20407;-73
2023/02/28 11:37:14;;;;;;;0.10;0.10;;;;;;;-3.45;74.36;99147.59;5057221;28;20197;-73
2023/02/28 11:39:40;;;;;;;0.10;0.10;;;;;;;-3.43;74.56;99150.88;5059323;28;20594;-72
2023/02/28 11:42:44;;;;;;;0.10;0.10;;;;;;;-3.38;74.49;99165.50;5059540;28;20033;-73